Αίθριος ουρανός
Νεφελώδης
Νεφελώδης
Νεφελώδης
Νεφελώδης
Νεφελώδης
Νεφελώδης
Νεφελώδης
Νεφοσκεπής
(°C)
21°
21°
20°
20°
20°
20°
20°
20°
20°
20°
20°
20°
20°
20°
20°
20°
20°
20°
(°C)
22°
22°
22°
22°
22°
22°
22°
22°
22°
ΔΝΔ
ΝΔ
ΝΝΔ
ΝΔ
ΔΝΔ
Δ
ΔΝΔ
ΝΔ
ΝΔ
(km/h)
4-8
4-9
4-9
3-8
3-8
3-8
3-7
3-7
4-8
(χιλιοστά)
0
0
0
0
0
0
0
0
0
(%)
2
2
1
0
0
0
0
0
0

Ανύψωση ήλιου

/ -36.3°
sun-icon
UV 10
05:52
19:57
Αύξων αμφίκυρτος (φάση σελήνης) (142°)
18:02
02:46

METAR για Σαν Ντιέγκο (KSAN)

Χρόνος Συνθήκες Θερμοκρασία/
Σημείο δρόσου
Άνεμος Ορατότητα Καιρός Νέφη Πίεση Αλλαγή Ανεπεξέργαστο
MVFR 20.6°C / 16.7°C 3kt >10km - Broken Clouds 1400ft - KSAN 180717Z VRB03KT 10SM BKN014 21/17 A2997 RMK AO2 T02060167 $
MVFR 20.6°C / 16.7°C 310º 3kt >10km - Broken Clouds 1500ft 1015 - KSAN 180651Z 31003KT 10SM BKN015 21/17 A2998 RMK AO2 SLP151 T02060167 $
MVFR 20.6°C / 16.1°C 300º 3kt >10km - Broken Clouds 1500ft
Broken Clouds 20000ft
- KSAN 180610Z 30003KT 10SM BKN015 BKN200 21/16 A2998 RMK AO2 T02060161 $
VFR 20.6°C / 16.1°C variable 0kt >10km - Scattered Clouds 1500ft
Broken Clouds 20000ft
1015 - KSAN 180551Z 00000KT 10SM SCT015 BKN200 21/16 A2998 RMK AO2 SLP152 SCT015 V BKN T02060161 10233 20206 51008 $
VFR 20.6°C / 16.1°C 300º 3kt >10km - Scattered Clouds 1500ft
Broken Clouds 20000ft
- KSAN 180529Z 30003KT 10SM SCT015 BKN200 21/16 A2998 RMK AO2 SCT015 V BKN T02060161 $
MVFR 20.6°C / 16.7°C 260º 3kt >10km - Broken Clouds 1500ft
Broken Clouds 20000ft
1015 - KSAN 180451Z 26003KT 10SM BKN015 BKN200 21/17 A2998 RMK AO2 SLP150 T02060167 $
MVFR 20.6°C / 16.1°C 270º 4kt >10km - Broken Clouds 1500ft 1014 - KSAN 180351Z 27004KT 10SM BKN015 21/16 A2997 RMK AO2 SLP148 T02060161 $
MVFR 21.1°C / 16.1°C 5kt >10km - Broken Clouds 1500ft
Broken Clouds 17000ft
1014 - KSAN 180251Z VRB05KT 10SM BKN015 BKN170 21/16 A2996 RMK AO2 SLP143 T02110161 53010 $
MVFR 21.1°C / 16.7°C 280º 6kt >10km - Broken Clouds 1500ft
Broken Clouds 17000ft
- KSAN 180236Z 28006KT 10SM BKN015 BKN170 21/17 A2995 RMK AO2 T02110167 $
VFR 21.7°C / 16.7°C 290º 7kt >10km - Scattered Clouds 1500ft
Scattered Clouds 5000ft
Broken Clouds 15000ft
1013 - KSAN 180151Z 29007KT 10SM SCT015 SCT050 BKN150 22/17 A2994 RMK AO2 SLP137 T02170167 $
VFR 22.2°C / 16.7°C 280º 6kt >10km - Few Clouds 1500ft
Few Clouds 5000ft
Scattered Clouds 13000ft
1013 - KSAN 180051Z 28006KT 10SM FEW015 FEW050 SCT130 22/17 A2993 RMK AO2 SLP135 T02220167 $
VFR 23.3°C / 16.7°C 280º 8kt >10km - Few Clouds 1500ft
Few Clouds 5000ft
Scattered Clouds 13000ft
1013 - KSAN 172351Z 28008KT 10SM FEW015 FEW050 SCT130 23/17 A2993 RMK AO2 SLP133 CB DSNT E T02330167 10250 20217 56015 $
VFR 23.9°C / 16.7°C 270º 12kt >10km - Few Clouds 1500ft
Few Clouds 5000ft
Scattered Clouds 13000ft
1013 - KSAN 172251Z COR 27012KT 10SM FEW015 FEW050 SCT130 24/17 A2994 RMK AO2 SLP136 CB DSNT E T02390167
VFR 23.9°C / 17.2°C 290º 7kt >10km - Few Clouds 1500ft
Scattered Clouds 5000ft
Scattered Clouds 25000ft
1014 - KSAN 172151Z 29007KT 10SM FEW015 SCT050 SCT250 24/17 A2995 RMK AO2 SLP142 CB DSNT E T02390172
VFR 23.9°C / 17.2°C 270º 10kt >10km - Few Clouds 1600ft
Scattered Clouds 5000ft
1014 - KSAN 172051Z 27010KT 10SM FEW016 SCT050 24/17 A2997 RMK AO2 SLP148 CB DSNT E T02390172 58011
VFR 23.3°C / 17.2°C 300º 7kt >10km - Scattered Clouds 1600ft
Broken Clouds 5000ft
- KSAN 172009Z 30007KT 10SM SCT016 BKN050 23/17 A2999 RMK AO2 T02330172
MVFR 23.9°C / 17.8°C 290º 7kt >10km - Broken Clouds 1500ft 1015 - KSAN 171951Z 29007KT 10SM BKN015 24/18 A2999 RMK AO2 SLP154 T02390178
MVFR 22.2°C / 17.2°C 6kt >10km - Broken Clouds 1400ft 1015 - KSAN 171851Z VRB06KT 10SM BKN014 22/17 A3000 RMK AO2 SLP159 T02220172
MVFR 21.7°C / 17.2°C 250º 7kt >10km - Overcast 1200ft 1016 - KSAN 171751Z 25007KT 10SM OVC012 22/17 A3001 RMK AO2 SLP161 60000 T02170172 10217 20206 51001
MVFR 21.7°C / 17.2°C 6kt >10km - Overcast 1100ft 1016 - KSAN 171651Z VRB06KT 10SM OVC011 22/17 A3000 RMK AO2 SLP160 T02170172
MVFR 21.1°C / 17.2°C 280º 4kt >10km - Overcast 1100ft 1016 - KSAN 171551Z 28004KT 10SM OVC011 21/17 A3001 RMK AO2 SLP162 T02110172
MVFR 20.6°C / 17.2°C 270º 3kt >10km 0.13mm precipitation Overcast 1100ft 1016 - KSAN 171451Z 27003KT 10SM OVC011 21/17 A3001 RMK AO2 RAB1353E02 SLP160 P0000 60000 T02060172 51011
MVFR 20.6°C / 17.2°C 250º 5kt >10km - Overcast 1100ft 1015 - KSAN 171351Z 25005KT 10SM OVC011 21/17 A3000 RMK AO2 SLP157 T02060172
MVFR 20.6°C / 17.2°C 290º 4kt >10km - Overcast 1100ft 1015 - KSAN 171251Z 29004KT 10SM OVC011 21/17 A2999 RMK AO2 SLP154 T02060172

MVFR

20.6°C / 16.7°C

[Περισσότερο]
Άνεμος 3kt
Ορατότητα >10km
Καιρός -
Νέφη Broken Clouds 1400ft
Πίεση
Αλλαγή -
Ανεπεξέργαστο KSAN 180717Z VRB03KT 10SM BKN014 21/17 A2997 RMK AO2 T02060167 $

MVFR

20.6°C / 16.7°C

[Περισσότερο]
Άνεμος 310º 3kt
Ορατότητα >10km
Καιρός -
Νέφη Broken Clouds 1500ft
Πίεση 1015
Αλλαγή -
Ανεπεξέργαστο KSAN 180651Z 31003KT 10SM BKN015 21/17 A2998 RMK AO2 SLP151 T02060167 $

MVFR

20.6°C / 16.1°C

[Περισσότερο]
Άνεμος 300º 3kt
Ορατότητα >10km
Καιρός -
Νέφη Broken Clouds 1500ft
Broken Clouds 20000ft
Πίεση
Αλλαγή -
Ανεπεξέργαστο KSAN 180610Z 30003KT 10SM BKN015 BKN200 21/16 A2998 RMK AO2 T02060161 $

VFR

20.6°C / 16.1°C

[Περισσότερο]
Άνεμος variable 0kt
Ορατότητα >10km
Καιρός -
Νέφη Scattered Clouds 1500ft
Broken Clouds 20000ft
Πίεση 1015
Αλλαγή -
Ανεπεξέργαστο KSAN 180551Z 00000KT 10SM SCT015 BKN200 21/16 A2998 RMK AO2 SLP152 SCT015 V BKN T02060161 10233 20206 51008 $

VFR

20.6°C / 16.1°C

[Περισσότερο]
Άνεμος 300º 3kt
Ορατότητα >10km
Καιρός -
Νέφη Scattered Clouds 1500ft
Broken Clouds 20000ft
Πίεση
Αλλαγή -
Ανεπεξέργαστο KSAN 180529Z 30003KT 10SM SCT015 BKN200 21/16 A2998 RMK AO2 SCT015 V BKN T02060161 $

MVFR

20.6°C / 16.7°C

[Περισσότερο]
Άνεμος 260º 3kt
Ορατότητα >10km
Καιρός -
Νέφη Broken Clouds 1500ft
Broken Clouds 20000ft
Πίεση 1015
Αλλαγή -
Ανεπεξέργαστο KSAN 180451Z 26003KT 10SM BKN015 BKN200 21/17 A2998 RMK AO2 SLP150 T02060167 $

MVFR

20.6°C / 16.1°C

[Περισσότερο]
Άνεμος 270º 4kt
Ορατότητα >10km
Καιρός -
Νέφη Broken Clouds 1500ft
Πίεση 1014
Αλλαγή -
Ανεπεξέργαστο KSAN 180351Z 27004KT 10SM BKN015 21/16 A2997 RMK AO2 SLP148 T02060161 $

MVFR

21.1°C / 16.1°C

[Περισσότερο]
Άνεμος 5kt
Ορατότητα >10km
Καιρός -
Νέφη Broken Clouds 1500ft
Broken Clouds 17000ft
Πίεση 1014
Αλλαγή -
Ανεπεξέργαστο KSAN 180251Z VRB05KT 10SM BKN015 BKN170 21/16 A2996 RMK AO2 SLP143 T02110161 53010 $

MVFR

21.1°C / 16.7°C

[Περισσότερο]
Άνεμος 280º 6kt
Ορατότητα >10km
Καιρός -
Νέφη Broken Clouds 1500ft
Broken Clouds 17000ft
Πίεση
Αλλαγή -
Ανεπεξέργαστο KSAN 180236Z 28006KT 10SM BKN015 BKN170 21/17 A2995 RMK AO2 T02110167 $

VFR

21.7°C / 16.7°C

[Περισσότερο]
Άνεμος 290º 7kt
Ορατότητα >10km
Καιρός -
Νέφη Scattered Clouds 1500ft
Scattered Clouds 5000ft
Broken Clouds 15000ft
Πίεση 1013
Αλλαγή -
Ανεπεξέργαστο KSAN 180151Z 29007KT 10SM SCT015 SCT050 BKN150 22/17 A2994 RMK AO2 SLP137 T02170167 $

VFR

22.2°C / 16.7°C

[Περισσότερο]
Άνεμος 280º 6kt
Ορατότητα >10km
Καιρός -
Νέφη Few Clouds 1500ft
Few Clouds 5000ft
Scattered Clouds 13000ft
Πίεση 1013
Αλλαγή -
Ανεπεξέργαστο KSAN 180051Z 28006KT 10SM FEW015 FEW050 SCT130 22/17 A2993 RMK AO2 SLP135 T02220167 $

VFR

23.3°C / 16.7°C

[Περισσότερο]
Άνεμος 280º 8kt
Ορατότητα >10km
Καιρός -
Νέφη Few Clouds 1500ft
Few Clouds 5000ft
Scattered Clouds 13000ft
Πίεση 1013
Αλλαγή -
Ανεπεξέργαστο KSAN 172351Z 28008KT 10SM FEW015 FEW050 SCT130 23/17 A2993 RMK AO2 SLP133 CB DSNT E T02330167 10250 20217 56015 $

VFR

23.9°C / 16.7°C

[Περισσότερο]
Άνεμος 270º 12kt
Ορατότητα >10km
Καιρός -
Νέφη Few Clouds 1500ft
Few Clouds 5000ft
Scattered Clouds 13000ft
Πίεση 1013
Αλλαγή -
Ανεπεξέργαστο KSAN 172251Z COR 27012KT 10SM FEW015 FEW050 SCT130 24/17 A2994 RMK AO2 SLP136 CB DSNT E T02390167

VFR

23.9°C / 17.2°C

[Περισσότερο]
Άνεμος 290º 7kt
Ορατότητα >10km
Καιρός -
Νέφη Few Clouds 1500ft
Scattered Clouds 5000ft
Scattered Clouds 25000ft
Πίεση 1014
Αλλαγή -
Ανεπεξέργαστο KSAN 172151Z 29007KT 10SM FEW015 SCT050 SCT250 24/17 A2995 RMK AO2 SLP142 CB DSNT E T02390172

VFR

23.9°C / 17.2°C

[Περισσότερο]
Άνεμος 270º 10kt
Ορατότητα >10km
Καιρός -
Νέφη Few Clouds 1600ft
Scattered Clouds 5000ft
Πίεση 1014
Αλλαγή -
Ανεπεξέργαστο KSAN 172051Z 27010KT 10SM FEW016 SCT050 24/17 A2997 RMK AO2 SLP148 CB DSNT E T02390172 58011

VFR

23.3°C / 17.2°C

[Περισσότερο]
Άνεμος 300º 7kt
Ορατότητα >10km
Καιρός -
Νέφη Scattered Clouds 1600ft
Broken Clouds 5000ft
Πίεση
Αλλαγή -
Ανεπεξέργαστο KSAN 172009Z 30007KT 10SM SCT016 BKN050 23/17 A2999 RMK AO2 T02330172

MVFR

23.9°C / 17.8°C

[Περισσότερο]
Άνεμος 290º 7kt
Ορατότητα >10km
Καιρός -
Νέφη Broken Clouds 1500ft
Πίεση 1015
Αλλαγή -
Ανεπεξέργαστο KSAN 171951Z 29007KT 10SM BKN015 24/18 A2999 RMK AO2 SLP154 T02390178

MVFR

22.2°C / 17.2°C

[Περισσότερο]
Άνεμος 6kt
Ορατότητα >10km
Καιρός -
Νέφη Broken Clouds 1400ft
Πίεση 1015
Αλλαγή -
Ανεπεξέργαστο KSAN 171851Z VRB06KT 10SM BKN014 22/17 A3000 RMK AO2 SLP159 T02220172

MVFR

21.7°C / 17.2°C

[Περισσότερο]
Άνεμος 250º 7kt
Ορατότητα >10km
Καιρός -
Νέφη Overcast 1200ft
Πίεση 1016
Αλλαγή -
Ανεπεξέργαστο KSAN 171751Z 25007KT 10SM OVC012 22/17 A3001 RMK AO2 SLP161 60000 T02170172 10217 20206 51001

MVFR

21.7°C / 17.2°C

[Περισσότερο]
Άνεμος 6kt
Ορατότητα >10km
Καιρός -
Νέφη Overcast 1100ft
Πίεση 1016
Αλλαγή -
Ανεπεξέργαστο KSAN 171651Z VRB06KT 10SM OVC011 22/17 A3000 RMK AO2 SLP160 T02170172

MVFR

21.1°C / 17.2°C

[Περισσότερο]
Άνεμος 280º 4kt
Ορατότητα >10km
Καιρός -
Νέφη Overcast 1100ft
Πίεση 1016
Αλλαγή -
Ανεπεξέργαστο KSAN 171551Z 28004KT 10SM OVC011 21/17 A3001 RMK AO2 SLP162 T02110172

MVFR

20.6°C / 17.2°C

[Περισσότερο]
Άνεμος 270º 3kt
Ορατότητα >10km
Καιρός 0.13mm precipitation
Νέφη Overcast 1100ft
Πίεση 1016
Αλλαγή -
Ανεπεξέργαστο KSAN 171451Z 27003KT 10SM OVC011 21/17 A3001 RMK AO2 RAB1353E02 SLP160 P0000 60000 T02060172 51011

MVFR

20.6°C / 17.2°C

[Περισσότερο]
Άνεμος 250º 5kt
Ορατότητα >10km
Καιρός -
Νέφη Overcast 1100ft
Πίεση 1015
Αλλαγή -
Ανεπεξέργαστο KSAN 171351Z 25005KT 10SM OVC011 21/17 A3000 RMK AO2 SLP157 T02060172

MVFR

20.6°C / 17.2°C

[Περισσότερο]
Άνεμος 290º 4kt
Ορατότητα >10km
Καιρός -
Νέφη Overcast 1100ft
Πίεση 1015
Αλλαγή -
Ανεπεξέργαστο KSAN 171251Z 29004KT 10SM OVC011 21/17 A2999 RMK AO2 SLP154 T02060172

TAF για Σαν Ντιέγκο (KSAN)

From till


From till Wind 4kt. Visibility 9700m. Overcast 1200ft.
From till Wind 200º 5kt. Visibility 9700m. Scattered Clouds 1500ft.
From till Wind 260º 8kt. Visibility 9700m. Few Clouds 2000ft. Scattered Clouds 15000ft.
From till Wind 300º 3kt. Visibility 9700m. Broken Clouds 1500ft.

Ανεπεξέργαστο: KSAN 180520Z 1806/1912 VRB04KT P6SM OVC012 FM181700 20005KT P6SM SCT015 FM181900 26008KT P6SM FEW020 SCT150 FM190700 30003KT P6SM BKN015

rainNOW: Nowcast βροχής για Σαν Ντιέγκο και περιφέρεια (25km ακτίνα)

0.0 χιλιοστά
0.0 χιλιοστά
0.0 χιλιοστά
0.0 χιλιοστά
0.0 χιλιοστά
0.0 χιλιοστά
0.0 χιλιοστά
0.0 χιλιοστά
0.0 χιλιοστά
0.0 χιλιοστά
0.0 χιλιοστά
0.0 χιλιοστά

Ραντάρ και πρόγνωση υετού μικρής διάρκειας για Σαν Ντιέγκο

Ψιλοβρέχει
Ελαφριά
Μέτρια
Έντονη
Πολύ έντονες
Χαλάζι

Ο δείκτης θέσης τοποθετείται στο Σαν Ντιέγκο. Αυτό το κινούμενο σχέδιο δείχνει το ραντάρ βροχόπτωσης για το επιλεγμένο χρονικό εύρος, καθώς και μια πρόγνωση 1h. Οι πορτοκαλί σταυροί υποδεικνύουν κεραυνούς. Δεδομένα που παρέχονται από nowcast.de (διαθέσιμα στις ΗΠΑ, την Ευρώπη, την Αυστραλία). Το ψιλόβροχο ή το ελαφρύ χιόνι μπορεί να είναι αόρατο για το ραντάρ. Η ένταση της βροχόπτωσης είναι χρωματικά κωδικοποιημένη και κυμαίνεται από τυρκουάζ έως κόκκινο.

Τρέχουσες εικόνες δορυφόρου για Σαν Ντιέγκο, ΗΠΑ

Η ένδειξη τοποθεσίας τοποθετείται στο Σαν Ντιέγκο. [Περισσότερο]

Οι δορυφορικές εικόνες σε πραγματικό χρόνο συνδυάζουν ορατό φως κατά τη διάρκεια της ημέρας με υπέρυθρη ακτινοβολία κατά τη διάρκεια της νύχτας. Κατά τη διάρκεια της νύχτας, η εικόνα δεν είναι σκοτεινή μιας και η υπέρυθρη ακτινοβολία μπορεί να εντοπίσει τις διαφορές στη θερμοκρασία. Δυστυχώς, είναι δύσκολο να ξεχωρίσουν οι χαμηλές νεφώσεις και η ομίχλη από τις θερμοκρασίες εδάφους και έτσι μπορεί να είναι σχετικά αόρατα κατά τη διάρκεια της νύχτας. Οι εικόνες από τον δορυφόρο Meteosat για την Ευρώπη ενημερώνονται σε πραγματικό χρόνο κάθε 5 λεπτά. Οι εικόνες από τους δορυφόρους GOES-16/GOES-17 (Βόρεια & Λατινική Αμερική) και Himawari (Ασία) ενημερώνονται κάθε 10 λεπτά.

Η βροχόπτωση εκτιμάται από ραντάρ και δορυφόρους. Οι εκτιμήσεις βροχόπτωσης από τους δορυφόρους είναι λιγότερο ακριβείς τη νύχτα απ' ό,τι κατά τη διάρκεια της ημέρας.

© 2024 meteoblue, NOAA Satellites GOES-16 and EUMETSAT. Δεδομένα αστραπών παρεχόμενα από nowcast.

Επιστροφή στην κορυφή
×
Γεια σου,
φαίνεται ότι χρησιμοποιείς ένα πρόγραμμα αποκλεισμού διαφημίσεων.

Η διαφήμιση είναι απαραίτητη για τη διατήρηση του δωρεάν ιστότοπού μας με μοναδική λεπτομέρεια και ακρίβεια.

Παρακαλούμε καταχωρήστε το www.meteoblue.com στη λευκή λίστα του ad blocker σας ή σκεφτείτε να αγοράσετε ένα από τα προϊόντα μας:

Έχετε ήδη συνδρομή;
Τότε παρακαλούμε σύνδεση.